<?xml version="1.0" encoding="UTF-8" standalone="no" ?>
<gpx xmlns="http://www.topografix.com/GPX/1/1" xmlns:xsi="http://www.w3.org/2001/XMLSchema-instance" xsi:schemaLocation="http://www.topografix.com/GPX/1/1 http://www.topografix.com/GPX/1/1/gpx.xsd" version="1.1" creator="VisuGPX - https://www.visugpx.com">
  <metadata>
    <name>Luminières - Malarce sur la Thines</name>
    <desc><![CDATA[Encore un autre balcon du Chassezac avec beaucoup de hauteur et de nombreux hameaux.]]></desc>
  </metadata>
  <wpt lat="44.44279" lon="4.09351">
    <ele>431.21</ele>
    <name><![CDATA[0000023]]></name>
    <type><![CDATA[Point de départ]]></type>
  </wpt>
  <wpt lat="44.44279" lon="4.09334">
    <ele>423.14</ele>
    <name><![CDATA[0000024]]></name>
    <desc><![CDATA[<p><br /><h3>Nom: Segment: 1</h3><br />Heure de départ: 01/28/2018 09:49<br/>Heure d'arrivée: 01/28/2018 17:08<br/>Distance: 13,2km (07:19)<br/>Temps déplacement: 03:17<br/>Vitesse moyenne: 1,8 km/h<br/>Vitesse moyenne mouv.: 4 km/h<br/>Vitesse Max.: 8,94 km/h<br/>Altitude minimale: 256 m<br/>Altitude maximale: 597 m<br/>Vitesse de montée: 220,6 m/h<br/>Vitesse de descente: -184,8 m/h<br/>Gain d'altitude: 722 m<br/>Perte d'altitude: -734 m<br/>Temps de montée: 03:16<br/>Temps de descente: 03:58<br/></p>]]></desc>
    <type><![CDATA[Point d'arrivée]]></type>
  </wpt>
  <trk>
    <name><![CDATA[2018-01-28 09:49]]></name>
    <desc><![CDATA[<p>Heure de départ: 01/28/2018 09:49<br/>Heure d'arrivée: 01/28/2018 17:08<br/>Distance: 13,2 km (07:19)<br/>Temps déplacement: 03:17<br/>Vitesse moyenne: 1,8 km/h<br/>Vitesse moyenne mouv.: 4 km/h<br/>Vitesse Max.: 8,94 km/h<br/>Altitude minimale: 256 m<br/>Altitude maximale: 597 m<br/>Vitesse de montée: 203,3 m/h<br/>Vitesse de descente: -160,5 m/h<br/>Gain d'altitude: 649 m<br/>Perte d'altitude: -658 m<br/>Temps de montée: 03:11<br/>Temps de descente: 04:06<br/></p><hr align="center" width="480" style="height: 2px; width: 517px"/>]]></desc>
    <trkseg>
      <trkpt lat="44.44279" lon="4.09351">
        <ele>431.21</ele>
        <time>2018-01-28T08:49:13Z</time>
      </trkpt>
      <trkpt lat="44.44279" lon="4.09323">
        <ele>427.64</ele>
        <time>2018-01-28T08:50:41Z</time>
      </trkpt>
      <trkpt lat="44.4428" lon="4.09298">
        <ele>429.7</ele>
        <time>2018-01-28T08:50:59Z</time>
      </trkpt>
      <trkpt lat="44.44282" lon="4.09273">
        <ele>430.08</ele>
        <time>2018-01-28T08:51:17Z</time>
      </trkpt>
      <trkpt lat="44.44282" lon="4.09246">
        <ele>429.27</ele>
        <time>2018-01-28T08:51:43Z</time>
      </trkpt>
      <trkpt lat="44.44284" lon="4.09219">
        <ele>432.1</ele>
        <time>2018-01-28T08:52:25Z</time>
      </trkpt>
      <trkpt lat="44.4428" lon="4.09194">
        <ele>430.83</ele>
        <time>2018-01-28T08:52:43Z</time>
      </trkpt>
      <trkpt lat="44.44284" lon="4.0917">
        <ele>434.47</ele>
        <time>2018-01-28T08:53:03Z</time>
      </trkpt>
      <trkpt lat="44.4429" lon="4.09144">
        <ele>433.17</ele>
        <time>2018-01-28T08:53:17Z</time>
      </trkpt>
      <trkpt lat="44.44295" lon="4.09117">
        <ele>436.09</ele>
        <time>2018-01-28T08:53:41Z</time>
      </trkpt>
      <trkpt lat="44.44305" lon="4.09093">
        <ele>440.21</ele>
        <time>2018-01-28T08:53:59Z</time>
      </trkpt>
      <trkpt lat="44.44318" lon="4.09073">
        <ele>439.32</ele>
        <time>2018-01-28T08:54:17Z</time>
      </trkpt>
      <trkpt lat="44.44329" lon="4.0905">
        <ele>445.52</ele>
        <time>2018-01-28T08:54:35Z</time>
      </trkpt>
      <trkpt lat="44.44341" lon="4.09028">
        <ele>442.76</ele>
        <time>2018-01-28T08:54:53Z</time>
      </trkpt>
      <trkpt lat="44.44347" lon="4.08999">
        <ele>450.89</ele>
        <time>2018-01-28T08:55:11Z</time>
      </trkpt>
      <trkpt lat="44.44337" lon="4.08975">
        <ele>447.84</ele>
        <time>2018-01-28T08:55:31Z</time>
      </trkpt>
      <trkpt lat="44.44322" lon="4.0896">
        <ele>438.21</ele>
        <time>2018-01-28T08:55:53Z</time>
      </trkpt>
      <trkpt lat="44.4431" lon="4.08934">
        <ele>437.89</ele>
        <time>2018-01-28T08:56:09Z</time>
      </trkpt>
      <trkpt lat="44.44293" lon="4.08913">
        <ele>435.32</ele>
        <time>2018-01-28T08:56:25Z</time>
      </trkpt>
      <trkpt lat="44.44284" lon="4.08891">
        <ele>429.83</ele>
        <time>2018-01-28T08:56:35Z</time>
      </trkpt>
      <trkpt lat="44.44272" lon="4.08869">
        <ele>426.53</ele>
        <time>2018-01-28T08:56:55Z</time>
      </trkpt>
      <trkpt lat="44.44258" lon="4.08854">
        <ele>424.28</ele>
        <time>2018-01-28T08:57:23Z</time>
      </trkpt>
      <trkpt lat="44.44252" lon="4.0883">
        <ele>432.5</ele>
        <time>2018-01-28T08:57:55Z</time>
      </trkpt>
      <trkpt lat="44.44245" lon="4.08806">
        <ele>431.75</ele>
        <time>2018-01-28T09:00:03Z</time>
      </trkpt>
      <trkpt lat="44.44229" lon="4.0879">
        <ele>428.36</ele>
        <time>2018-01-28T09:00:19Z</time>
      </trkpt>
      <trkpt lat="44.44213" lon="4.08778">
        <ele>426.45</ele>
        <time>2018-01-28T09:00:33Z</time>
      </trkpt>
      <trkpt lat="44.442" lon="4.08759">
        <ele>427.57</ele>
        <time>2018-01-28T09:00:49Z</time>
      </trkpt>
      <trkpt lat="44.44185" lon="4.0874">
        <ele>429.93</ele>
        <time>2018-01-28T09:01:07Z</time>
      </trkpt>
      <trkpt lat="44.44174" lon="4.08719">
        <ele>433.64</ele>
        <time>2018-01-28T09:01:25Z</time>
      </trkpt>
      <trkpt lat="44.44165" lon="4.08695">
        <ele>432.48</ele>
        <time>2018-01-28T09:01:41Z</time>
      </trkpt>
      <trkpt lat="44.44161" lon="4.08669">
        <ele>429.45</ele>
        <time>2018-01-28T09:01:57Z</time>
      </trkpt>
      <trkpt lat="44.44154" lon="4.08646">
        <ele>430.91</ele>
        <time>2018-01-28T09:02:15Z</time>
      </trkpt>
      <trkpt lat="44.44145" lon="4.08624">
        <ele>433.93</ele>
        <time>2018-01-28T09:02:27Z</time>
      </trkpt>
      <trkpt lat="44.44142" lon="4.08599">
        <ele>431.4</ele>
        <time>2018-01-28T09:03:33Z</time>
      </trkpt>
      <trkpt lat="44.44126" lon="4.08612">
        <ele>421.59</ele>
        <time>2018-01-28T09:04:23Z</time>
      </trkpt>
      <trkpt lat="44.4411" lon="4.08624">
        <ele>424.09</ele>
        <time>2018-01-28T09:04:41Z</time>
      </trkpt>
      <trkpt lat="44.44092" lon="4.08622">
        <ele>420.78</ele>
        <time>2018-01-28T09:04:51Z</time>
      </trkpt>
      <trkpt lat="44.44072" lon="4.08626">
        <ele>423.08</ele>
        <time>2018-01-28T09:05:13Z</time>
      </trkpt>
      <trkpt lat="44.44056" lon="4.08613">
        <ele>416.13</ele>
        <time>2018-01-28T09:05:35Z</time>
      </trkpt>
      <trkpt lat="44.44043" lon="4.08595">
        <ele>415.72</ele>
        <time>2018-01-28T09:05:55Z</time>
      </trkpt>
      <trkpt lat="44.44026" lon="4.08586">
        <ele>408.13</ele>
        <time>2018-01-28T09:06:07Z</time>
      </trkpt>
      <trkpt lat="44.44013" lon="4.08567">
        <ele>415.02</ele>
        <time>2018-01-28T09:06:23Z</time>
      </trkpt>
      <trkpt lat="44.44004" lon="4.08543">
        <ele>421.2</ele>
        <time>2018-01-28T09:06:49Z</time>
      </trkpt>
      <trkpt lat="44.4399" lon="4.08524">
        <ele>418.91</ele>
        <time>2018-01-28T09:07:01Z</time>
      </trkpt>
      <trkpt lat="44.43974" lon="4.0851">
        <ele>422.37</ele>
        <time>2018-01-28T09:07:21Z</time>
      </trkpt>
      <trkpt lat="44.43966" lon="4.08485">
        <ele>420.47</ele>
        <time>2018-01-28T09:07:39Z</time>
      </trkpt>
      <trkpt lat="44.43953" lon="4.08462">
        <ele>421.92</ele>
        <time>2018-01-28T09:07:53Z</time>
      </trkpt>
      <trkpt lat="44.4394" lon="4.08443">
        <ele>414.21</ele>
        <time>2018-01-28T09:08:11Z</time>
      </trkpt>
      <trkpt lat="44.43921" lon="4.08439">
        <ele>415.65</ele>
        <time>2018-01-28T09:08:27Z</time>
      </trkpt>
      <trkpt lat="44.43906" lon="4.08455">
        <ele>413.56</ele>
        <time>2018-01-28T09:08:45Z</time>
      </trkpt>
      <trkpt lat="44.43891" lon="4.0847">
        <ele>411.08</ele>
        <time>2018-01-28T09:08:59Z</time>
      </trkpt>
      <trkpt lat="44.43875" lon="4.08481">
        <ele>405.43</ele>
        <time>2018-01-28T09:09:13Z</time>
      </trkpt>
      <trkpt lat="44.43862" lon="4.085">
        <ele>407.98</ele>
        <time>2018-01-28T09:09:55Z</time>
      </trkpt>
      <trkpt lat="44.43843" lon="4.08496">
        <ele>404.75</ele>
        <time>2018-01-28T09:10:21Z</time>
      </trkpt>
      <trkpt lat="44.43824" lon="4.08492">
        <ele>406.55</ele>
        <time>2018-01-28T09:10:53Z</time>
      </trkpt>
      <trkpt lat="44.43806" lon="4.08486">
        <ele>401.26</ele>
        <time>2018-01-28T09:11:07Z</time>
      </trkpt>
      <trkpt lat="44.43789" lon="4.08478">
        <ele>403.06</ele>
        <time>2018-01-28T09:11:33Z</time>
      </trkpt>
      <trkpt lat="44.43794" lon="4.08452">
        <ele>404.5</ele>
        <time>2018-01-28T09:11:55Z</time>
      </trkpt>
      <trkpt lat="44.43813" lon="4.0844">
        <ele>406</ele>
        <time>2018-01-28T09:12:43Z</time>
      </trkpt>
      <trkpt lat="44.43832" lon="4.08439">
        <ele>401.31</ele>
        <time>2018-01-28T09:12:51Z</time>
      </trkpt>
      <trkpt lat="44.43815" lon="4.08424">
        <ele>390.69</ele>
        <time>2018-01-28T09:13:33Z</time>
      </trkpt>
      <trkpt lat="44.43796" lon="4.08418">
        <ele>376.17</ele>
        <time>2018-01-28T09:14:01Z</time>
      </trkpt>
      <trkpt lat="44.43777" lon="4.08415">
        <ele>381.58</ele>
        <time>2018-01-28T09:14:19Z</time>
      </trkpt>
      <trkpt lat="44.43757" lon="4.08413">
        <ele>384.28</ele>
        <time>2018-01-28T09:14:53Z</time>
      </trkpt>
      <trkpt lat="44.43737" lon="4.08414">
        <ele>383.5</ele>
        <time>2018-01-28T09:15:13Z</time>
      </trkpt>
      <trkpt lat="44.43723" lon="4.0843">
        <ele>379.89</ele>
        <time>2018-01-28T09:15:37Z</time>
      </trkpt>
      <trkpt lat="44.43719" lon="4.08456">
        <ele>376.91</ele>
        <time>2018-01-28T09:16:19Z</time>
      </trkpt>
      <trkpt lat="44.43727" lon="4.0848">
        <ele>373.38</ele>
        <time>2018-01-28T09:16:33Z</time>
      </trkpt>
      <trkpt lat="44.43724" lon="4.08507">
        <ele>375.27</ele>
        <time>2018-01-28T09:16:51Z</time>
      </trkpt>
      <trkpt lat="44.43717" lon="4.08533">
        <ele>375.7</ele>
        <time>2018-01-28T09:17:07Z</time>
      </trkpt>
      <trkpt lat="44.43712" lon="4.08508">
        <ele>365.32</ele>
        <time>2018-01-28T09:18:15Z</time>
      </trkpt>
      <trkpt lat="44.43712" lon="4.08478">
        <ele>360.65</ele>
        <time>2018-01-28T09:18:37Z</time>
      </trkpt>
      <trkpt lat="44.43698" lon="4.08463">
        <ele>366.15</ele>
        <time>2018-01-28T09:18:53Z</time>
      </trkpt>
      <trkpt lat="44.43692" lon="4.08438">
        <ele>357.12</ele>
        <time>2018-01-28T09:19:25Z</time>
      </trkpt>
      <trkpt lat="44.43685" lon="4.08413">
        <ele>360.02</ele>
        <time>2018-01-28T09:19:37Z</time>
      </trkpt>
      <trkpt lat="44.43678" lon="4.08388">
        <ele>367.79</ele>
        <time>2018-01-28T09:20:07Z</time>
      </trkpt>
      <trkpt lat="44.43673" lon="4.08364">
        <ele>358.91</ele>
        <time>2018-01-28T09:20:23Z</time>
      </trkpt>
      <trkpt lat="44.43668" lon="4.08338">
        <ele>357.95</ele>
        <time>2018-01-28T09:20:39Z</time>
      </trkpt>
      <trkpt lat="44.43686" lon="4.08334">
        <ele>358.4</ele>
        <time>2018-01-28T09:22:39Z</time>
      </trkpt>
      <trkpt lat="44.43706" lon="4.08337">
        <ele>358.25</ele>
        <time>2018-01-28T09:22:53Z</time>
      </trkpt>
      <trkpt lat="44.43726" lon="4.08335">
        <ele>354.13</ele>
        <time>2018-01-28T09:23:31Z</time>
      </trkpt>
      <trkpt lat="44.43744" lon="4.08326">
        <ele>350.49</ele>
        <time>2018-01-28T09:23:51Z</time>
      </trkpt>
      <trkpt lat="44.43763" lon="4.08323">
        <ele>350.01</ele>
        <time>2018-01-28T09:24:09Z</time>
      </trkpt>
      <trkpt lat="44.43782" lon="4.08318">
        <ele>351.75</ele>
        <time>2018-01-28T09:24:35Z</time>
      </trkpt>
      <trkpt lat="44.43801" lon="4.08308">
        <ele>347.61</ele>
        <time>2018-01-28T09:24:57Z</time>
      </trkpt>
      <trkpt lat="44.4378" lon="4.083">
        <ele>345.07</ele>
        <time>2018-01-28T09:26:01Z</time>
      </trkpt>
      <trkpt lat="44.43761" lon="4.083">
        <ele>343.13</ele>
        <time>2018-01-28T09:26:17Z</time>
      </trkpt>
      <trkpt lat="44.43743" lon="4.08302">
        <ele>335.39</ele>
        <time>2018-01-28T09:27:07Z</time>
      </trkpt>
      <trkpt lat="44.43726" lon="4.08288">
        <ele>331.04</ele>
        <time>2018-01-28T09:27:23Z</time>
      </trkpt>
      <trkpt lat="44.43707" lon="4.08279">
        <ele>330.37</ele>
        <time>2018-01-28T09:27:41Z</time>
      </trkpt>
      <trkpt lat="44.4369" lon="4.08267">
        <ele>332.01</ele>
        <time>2018-01-28T09:28:07Z</time>
      </trkpt>
      <trkpt lat="44.43672" lon="4.08259">
        <ele>329.65</ele>
        <time>2018-01-28T09:28:43Z</time>
      </trkpt>
      <trkpt lat="44.4369" lon="4.0826">
        <ele>322.25</ele>
        <time>2018-01-28T09:29:17Z</time>
      </trkpt>
      <trkpt lat="44.43706" lon="4.08248">
        <ele>316.63</ele>
        <time>2018-01-28T09:29:39Z</time>
      </trkpt>
      <trkpt lat="44.43725" lon="4.08246">
        <ele>321.58</ele>
        <time>2018-01-28T09:29:59Z</time>
      </trkpt>
      <trkpt lat="44.43712" lon="4.08227">
        <ele>321.34</ele>
        <time>2018-01-28T09:30:51Z</time>
      </trkpt>
      <trkpt lat="44.43695" lon="4.08214">
        <ele>318.2</ele>
        <time>2018-01-28T09:31:13Z</time>
      </trkpt>
      <trkpt lat="44.43675" lon="4.08209">
        <ele>307</ele>
        <time>2018-01-28T09:32:07Z</time>
      </trkpt>
      <trkpt lat="44.43685" lon="4.08188">
        <ele>304.06</ele>
        <time>2018-01-28T09:33:05Z</time>
      </trkpt>
      <trkpt lat="44.43705" lon="4.08186">
        <ele>301.24</ele>
        <time>2018-01-28T09:33:25Z</time>
      </trkpt>
      <trkpt lat="44.43709" lon="4.08159">
        <ele>302.15</ele>
        <time>2018-01-28T09:34:23Z</time>
      </trkpt>
      <trkpt lat="44.43693" lon="4.08143">
        <ele>292.81</ele>
        <time>2018-01-28T09:34:49Z</time>
      </trkpt>
      <trkpt lat="44.43676" lon="4.08135">
        <ele>293.84</ele>
        <time>2018-01-28T09:35:07Z</time>
      </trkpt>
      <trkpt lat="44.43661" lon="4.0812">
        <ele>291.6</ele>
        <time>2018-01-28T09:35:31Z</time>
      </trkpt>
      <trkpt lat="44.43641" lon="4.08114">
        <ele>281.72</ele>
        <time>2018-01-28T09:35:49Z</time>
      </trkpt>
      <trkpt lat="44.43623" lon="4.08109">
        <ele>279.14</ele>
        <time>2018-01-28T09:36:09Z</time>
      </trkpt>
      <trkpt lat="44.43606" lon="4.08094">
        <ele>274.52</ele>
        <time>2018-01-28T09:36:37Z</time>
      </trkpt>
      <trkpt lat="44.4362" lon="4.08078">
        <ele>274.03</ele>
        <time>2018-01-28T09:37:11Z</time>
      </trkpt>
      <trkpt lat="44.43637" lon="4.08068">
        <ele>274.58</ele>
        <time>2018-01-28T09:37:31Z</time>
      </trkpt>
      <trkpt lat="44.43656" lon="4.08059">
        <ele>275.08</ele>
        <time>2018-01-28T09:37:53Z</time>
      </trkpt>
      <trkpt lat="44.43674" lon="4.08052">
        <ele>274.76</ele>
        <time>2018-01-28T09:38:09Z</time>
      </trkpt>
      <trkpt lat="44.43668" lon="4.08028">
        <ele>267.18</ele>
        <time>2018-01-28T09:38:53Z</time>
      </trkpt>
      <trkpt lat="44.43651" lon="4.08019">
        <ele>266.07</ele>
        <time>2018-01-28T09:39:09Z</time>
      </trkpt>
      <trkpt lat="44.43669" lon="4.08015">
        <ele>257.71</ele>
        <time>2018-01-28T09:40:31Z</time>
      </trkpt>
      <trkpt lat="44.43687" lon="4.08011">
        <ele>257.51</ele>
        <time>2018-01-28T09:40:47Z</time>
      </trkpt>
      <trkpt lat="44.43705" lon="4.08007">
        <ele>261.95</ele>
        <time>2018-01-28T09:41:07Z</time>
      </trkpt>
      <trkpt lat="44.43726" lon="4.0801">
        <ele>258.11</ele>
        <time>2018-01-28T09:41:21Z</time>
      </trkpt>
      <trkpt lat="44.43741" lon="4.08024">
        <ele>263.57</ele>
        <time>2018-01-28T09:41:35Z</time>
      </trkpt>
      <trkpt lat="44.43761" lon="4.08019">
        <ele>266.95</ele>
        <time>2018-01-28T09:41:51Z</time>
      </trkpt>
      <trkpt lat="44.43779" lon="4.08011">
        <ele>267.71</ele>
        <time>2018-01-28T09:42:07Z</time>
      </trkpt>
      <trkpt lat="44.43798" lon="4.08004">
        <ele>269.03</ele>
        <time>2018-01-28T09:42:29Z</time>
      </trkpt>
      <trkpt lat="44.43819" lon="4.08008">
        <ele>265.67</ele>
        <time>2018-01-28T09:42:47Z</time>
      </trkpt>
      <trkpt lat="44.43837" lon="4.08006">
        <ele>265.29</ele>
        <time>2018-01-28T09:43:27Z</time>
      </trkpt>
      <trkpt lat="44.43856" lon="4.08008">
        <ele>270.4</ele>
        <time>2018-01-28T09:43:43Z</time>
      </trkpt>
      <trkpt lat="44.43875" lon="4.08014">
        <ele>268.69</ele>
        <time>2018-01-28T09:44:07Z</time>
      </trkpt>
      <trkpt lat="44.43893" lon="4.08025">
        <ele>269.93</ele>
        <time>2018-01-28T09:44:19Z</time>
      </trkpt>
      <trkpt lat="44.4391" lon="4.08033">
        <ele>269.08</ele>
        <time>2018-01-28T09:44:35Z</time>
      </trkpt>
      <trkpt lat="44.43921" lon="4.08056">
        <ele>266.37</ele>
        <time>2018-01-28T09:44:47Z</time>
      </trkpt>
      <trkpt lat="44.4394" lon="4.0805">
        <ele>264.96</ele>
        <time>2018-01-28T09:45:03Z</time>
      </trkpt>
      <trkpt lat="44.43958" lon="4.08053">
        <ele>262.33</ele>
        <time>2018-01-28T09:45:29Z</time>
      </trkpt>
      <trkpt lat="44.43974" lon="4.08066">
        <ele>265.32</ele>
        <time>2018-01-28T09:45:51Z</time>
      </trkpt>
      <trkpt lat="44.43984" lon="4.08088">
        <ele>265.45</ele>
        <time>2018-01-28T09:46:07Z</time>
      </trkpt>
      <trkpt lat="44.43988" lon="4.08117">
        <ele>267.01</ele>
        <time>2018-01-28T09:46:25Z</time>
      </trkpt>
      <trkpt lat="44.43996" lon="4.08141">
        <ele>270.63</ele>
        <time>2018-01-28T09:46:43Z</time>
      </trkpt>
      <trkpt lat="44.44011" lon="4.08159">
        <ele>271.87</ele>
        <time>2018-01-28T09:47:01Z</time>
      </trkpt>
      <trkpt lat="44.44031" lon="4.08172">
        <ele>271.23</ele>
        <time>2018-01-28T09:47:19Z</time>
      </trkpt>
      <trkpt lat="44.44043" lon="4.0819">
        <ele>272.44</ele>
        <time>2018-01-28T09:47:39Z</time>
      </trkpt>
      <trkpt lat="44.44062" lon="4.08185">
        <ele>266.36</ele>
        <time>2018-01-28T09:47:53Z</time>
      </trkpt>
      <trkpt lat="44.44077" lon="4.0817">
        <ele>266.72</ele>
        <time>2018-01-28T09:48:09Z</time>
      </trkpt>
      <trkpt lat="44.44094" lon="4.08159">
        <ele>262.98</ele>
        <time>2018-01-28T09:48:23Z</time>
      </trkpt>
      <trkpt lat="44.44112" lon="4.08145">
        <ele>263.74</ele>
        <time>2018-01-28T09:48:45Z</time>
      </trkpt>
      <trkpt lat="44.4413" lon="4.08135">
        <ele>266.73</ele>
        <time>2018-01-28T09:49:03Z</time>
      </trkpt>
      <trkpt lat="44.44148" lon="4.08134">
        <ele>263.79</ele>
        <time>2018-01-28T09:49:17Z</time>
      </trkpt>
      <trkpt lat="44.44167" lon="4.08131">
        <ele>265.76</ele>
        <time>2018-01-28T09:49:35Z</time>
      </trkpt>
      <trkpt lat="44.44186" lon="4.08129">
        <ele>267.46</ele>
        <time>2018-01-28T09:49:49Z</time>
      </trkpt>
      <trkpt lat="44.44203" lon="4.08119">
        <ele>263.34</ele>
        <time>2018-01-28T09:50:03Z</time>
      </trkpt>
      <trkpt lat="44.44217" lon="4.08101">
        <ele>257.95</ele>
        <time>2018-01-28T09:50:21Z</time>
      </trkpt>
      <trkpt lat="44.44228" lon="4.08079">
        <ele>256.03</ele>
        <time>2018-01-28T09:50:35Z</time>
      </trkpt>
      <trkpt lat="44.44235" lon="4.08047">
        <ele>258</ele>
        <time>2018-01-28T09:50:53Z</time>
      </trkpt>
      <trkpt lat="44.44233" lon="4.08021">
        <ele>259.38</ele>
        <time>2018-01-28T09:51:35Z</time>
      </trkpt>
      <trkpt lat="44.44234" lon="4.07995">
        <ele>260.14</ele>
        <time>2018-01-28T09:51:49Z</time>
      </trkpt>
      <trkpt lat="44.44244" lon="4.07972">
        <ele>270.64</ele>
        <time>2018-01-28T09:53:51Z</time>
      </trkpt>
      <trkpt lat="44.44261" lon="4.07962">
        <ele>281.32</ele>
        <time>2018-01-28T09:54:39Z</time>
      </trkpt>
      <trkpt lat="44.44277" lon="4.0795">
        <ele>284.06</ele>
        <time>2018-01-28T09:55:01Z</time>
      </trkpt>
      <trkpt lat="44.44293" lon="4.07935">
        <ele>279.11</ele>
        <time>2018-01-28T09:58:48Z</time>
      </trkpt>
      <trkpt lat="44.44308" lon="4.07918">
        <ele>281.43</ele>
        <time>2018-01-28T09:59:04Z</time>
      </trkpt>
      <trkpt lat="44.44312" lon="4.07893">
        <ele>282.57</ele>
        <time>2018-01-28T09:59:24Z</time>
      </trkpt>
      <trkpt lat="44.44321" lon="4.07865">
        <ele>284</ele>
        <time>2018-01-28T10:00:48Z</time>
      </trkpt>
      <trkpt lat="44.44326" lon="4.07839">
        <ele>286.78</ele>
        <time>2018-01-28T10:01:00Z</time>
      </trkpt>
      <trkpt lat="44.44337" lon="4.07818">
        <ele>285.35</ele>
        <time>2018-01-28T10:01:16Z</time>
      </trkpt>
      <trkpt lat="44.44347" lon="4.07794">
        <ele>287.94</ele>
        <time>2018-01-28T10:01:36Z</time>
      </trkpt>
      <trkpt lat="44.44355" lon="4.0777">
        <ele>284.4</ele>
        <time>2018-01-28T10:02:08Z</time>
      </trkpt>
      <trkpt lat="44.44371" lon="4.07757">
        <ele>282.69</ele>
        <time>2018-01-28T10:03:08Z</time>
      </trkpt>
      <trkpt lat="44.44381" lon="4.07733">
        <ele>280.94</ele>
        <time>2018-01-28T10:03:20Z</time>
      </trkpt>
      <trkpt lat="44.44386" lon="4.07708">
        <ele>285.9</ele>
        <time>2018-01-28T10:03:36Z</time>
      </trkpt>
      <trkpt lat="44.44391" lon="4.07684">
        <ele>301.65</ele>
        <time>2018-01-28T10:04:00Z</time>
      </trkpt>
      <trkpt lat="44.44396" lon="4.07659">
        <ele>294.66</ele>
        <time>2018-01-28T10:04:24Z</time>
      </trkpt>
      <trkpt lat="44.44387" lon="4.07637">
        <ele>296.45</ele>
        <time>2018-01-28T10:04:58Z</time>
      </trkpt>
      <trkpt lat="44.44392" lon="4.07611">
        <ele>315.35</ele>
        <time>2018-01-28T10:06:42Z</time>
      </trkpt>
      <trkpt lat="44.44397" lon="4.07585">
        <ele>310.49</ele>
        <time>2018-01-28T10:06:54Z</time>
      </trkpt>
      <trkpt lat="44.44407" lon="4.07563">
        <ele>316.15</ele>
        <time>2018-01-28T10:07:16Z</time>
      </trkpt>
      <trkpt lat="44.44423" lon="4.07548">
        <ele>309.41</ele>
        <time>2018-01-28T10:07:34Z</time>
      </trkpt>
      <trkpt lat="44.44437" lon="4.07532">
        <ele>314.78</ele>
        <time>2018-01-28T10:08:04Z</time>
      </trkpt>
      <trkpt lat="44.44456" lon="4.07522">
        <ele>311.1</ele>
        <time>2018-01-28T10:08:16Z</time>
      </trkpt>
      <trkpt lat="44.44459" lon="4.07495">
        <ele>310.31</ele>
        <time>2018-01-28T10:09:36Z</time>
      </trkpt>
      <trkpt lat="44.44454" lon="4.07468">
        <ele>312.11</ele>
        <time>2018-01-28T10:09:48Z</time>
      </trkpt>
      <trkpt lat="44.44455" lon="4.0744">
        <ele>329.37</ele>
        <time>2018-01-28T10:10:20Z</time>
      </trkpt>
      <trkpt lat="44.44455" lon="4.07414">
        <ele>336.09</ele>
        <time>2018-01-28T10:11:14Z</time>
      </trkpt>
      <trkpt lat="44.44463" lon="4.07388">
        <ele>336.27</ele>
        <time>2018-01-28T10:11:28Z</time>
      </trkpt>
      <trkpt lat="44.44473" lon="4.07359">
        <ele>349.72</ele>
        <time>2018-01-28T10:18:26Z</time>
      </trkpt>
      <trkpt lat="44.44471" lon="4.07334">
        <ele>358.47</ele>
        <time>2018-01-28T10:18:44Z</time>
      </trkpt>
      <trkpt lat="44.44473" lon="4.07308">
        <ele>359.61</ele>
        <time>2018-01-28T10:19:18Z</time>
      </trkpt>
      <trkpt lat="44.44471" lon="4.07283">
        <ele>362.49</ele>
        <time>2018-01-28T10:20:04Z</time>
      </trkpt>
      <trkpt lat="44.44457" lon="4.07264">
        <ele>364.07</ele>
        <time>2018-01-28T10:20:18Z</time>
      </trkpt>
      <trkpt lat="44.44438" lon="4.07262">
        <ele>366.83</ele>
        <time>2018-01-28T10:20:34Z</time>
      </trkpt>
      <trkpt lat="44.44425" lon="4.07243">
        <ele>364.37</ele>
        <time>2018-01-28T10:20:54Z</time>
      </trkpt>
      <trkpt lat="44.44405" lon="4.07239">
        <ele>362.54</ele>
        <time>2018-01-28T10:21:14Z</time>
      </trkpt>
      <trkpt lat="44.44389" lon="4.0722">
        <ele>360.46</ele>
        <time>2018-01-28T10:22:06Z</time>
      </trkpt>
      <trkpt lat="44.44383" lon="4.07195">
        <ele>364</ele>
        <time>2018-01-28T10:22:26Z</time>
      </trkpt>
      <trkpt lat="44.44402" lon="4.07197">
        <ele>366.22</ele>
        <time>2018-01-28T10:22:58Z</time>
      </trkpt>
      <trkpt lat="44.4442" lon="4.07202">
        <ele>376.56</ele>
        <time>2018-01-28T10:23:28Z</time>
      </trkpt>
      <trkpt lat="44.44438" lon="4.07209">
        <ele>369.73</ele>
        <time>2018-01-28T10:23:54Z</time>
      </trkpt>
      <trkpt lat="44.44458" lon="4.07211">
        <ele>366.22</ele>
        <time>2018-01-28T10:24:12Z</time>
      </trkpt>
      <trkpt lat="44.44476" lon="4.07206">
        <ele>372.34</ele>
        <time>2018-01-28T10:24:36Z</time>
      </trkpt>
      <trkpt lat="44.44494" lon="4.07202">
        <ele>378.56</ele>
        <time>2018-01-28T10:24:54Z</time>
      </trkpt>
      <trkpt lat="44.44486" lon="4.07226">
        <ele>377.57</ele>
        <time>2018-01-28T10:25:24Z</time>
      </trkpt>
      <trkpt lat="44.44493" lon="4.07252">
        <ele>373.08</ele>
        <time>2018-01-28T10:25:48Z</time>
      </trkpt>
      <trkpt lat="44.44503" lon="4.07273">
        <ele>377.82</ele>
        <time>2018-01-28T10:26:06Z</time>
      </trkpt>
      <trkpt lat="44.44511" lon="4.07299">
        <ele>376.26</ele>
        <time>2018-01-28T10:26:28Z</time>
      </trkpt>
      <trkpt lat="44.44525" lon="4.07317">
        <ele>379.62</ele>
        <time>2018-01-28T10:26:50Z</time>
      </trkpt>
      <trkpt lat="44.44531" lon="4.07342">
        <ele>383.07</ele>
        <time>2018-01-28T10:27:12Z</time>
      </trkpt>
      <trkpt lat="44.4454" lon="4.07364">
        <ele>379.58</ele>
        <time>2018-01-28T10:27:38Z</time>
      </trkpt>
      <trkpt lat="44.44552" lon="4.07389">
        <ele>386.24</ele>
        <time>2018-01-28T10:28:04Z</time>
      </trkpt>
      <trkpt lat="44.44556" lon="4.07415">
        <ele>385.09</ele>
        <time>2018-01-28T10:28:18Z</time>
      </trkpt>
      <trkpt lat="44.44559" lon="4.07441">
        <ele>385.05</ele>
        <time>2018-01-28T10:28:34Z</time>
      </trkpt>
      <trkpt lat="44.44563" lon="4.07467">
        <ele>385.21</ele>
        <time>2018-01-28T10:28:56Z</time>
      </trkpt>
      <trkpt lat="44.44561" lon="4.07493">
        <ele>385</ele>
        <time>2018-01-28T10:29:38Z</time>
      </trkpt>
      <trkpt lat="44.44563" lon="4.07518">
        <ele>381.15</ele>
        <time>2018-01-28T10:29:48Z</time>
      </trkpt>
      <trkpt lat="44.4456" lon="4.07543">
        <ele>380.6</ele>
        <time>2018-01-28T10:30:10Z</time>
      </trkpt>
      <trkpt lat="44.44563" lon="4.07569">
        <ele>391.4</ele>
        <time>2018-01-28T10:30:34Z</time>
      </trkpt>
      <trkpt lat="44.44564" lon="4.07595">
        <ele>391.4</ele>
        <time>2018-01-28T10:30:54Z</time>
      </trkpt>
      <trkpt lat="44.4456" lon="4.07622">
        <ele>388.87</ele>
        <time>2018-01-28T10:31:14Z</time>
      </trkpt>
      <trkpt lat="44.44554" lon="4.07649">
        <ele>388.59</ele>
        <time>2018-01-28T10:31:34Z</time>
      </trkpt>
      <trkpt lat="44.44554" lon="4.07676">
        <ele>391.05</ele>
        <time>2018-01-28T10:31:58Z</time>
      </trkpt>
      <trkpt lat="44.4457" lon="4.07695">
        <ele>387.62</ele>
        <time>2018-01-28T10:32:14Z</time>
      </trkpt>
      <trkpt lat="44.44585" lon="4.07681">
        <ele>400.65</ele>
        <time>2018-01-28T10:32:36Z</time>
      </trkpt>
      <trkpt lat="44.4457" lon="4.07665">
        <ele>399.38</ele>
        <time>2018-01-28T10:32:54Z</time>
      </trkpt>
      <trkpt lat="44.44566" lon="4.07639">
        <ele>403.54</ele>
        <time>2018-01-28T10:33:10Z</time>
      </trkpt>
      <trkpt lat="44.44569" lon="4.07612">
        <ele>404.24</ele>
        <time>2018-01-28T10:33:28Z</time>
      </trkpt>
      <trkpt lat="44.44577" lon="4.07588">
        <ele>407.81</ele>
        <time>2018-01-28T10:33:48Z</time>
      </trkpt>
      <trkpt lat="44.44591" lon="4.0757">
        <ele>405.48</ele>
        <time>2018-01-28T10:34:06Z</time>
      </trkpt>
      <trkpt lat="44.44594" lon="4.07544">
        <ele>407.29</ele>
        <time>2018-01-28T10:34:28Z</time>
      </trkpt>
      <trkpt lat="44.44594" lon="4.07516">
        <ele>414.67</ele>
        <time>2018-01-28T10:34:48Z</time>
      </trkpt>
      <trkpt lat="44.44601" lon="4.07492">
        <ele>413.35</ele>
        <time>2018-01-28T10:35:16Z</time>
      </trkpt>
      <trkpt lat="44.44611" lon="4.07469">
        <ele>409.84</ele>
        <time>2018-01-28T10:35:36Z</time>
      </trkpt>
      <trkpt lat="44.44619" lon="4.07443">
        <ele>414.05</ele>
        <time>2018-01-28T10:35:54Z</time>
      </trkpt>
      <trkpt lat="44.44622" lon="4.07469">
        <ele>414.94</ele>
        <time>2018-01-28T10:36:50Z</time>
      </trkpt>
      <trkpt lat="44.44613" lon="4.07494">
        <ele>413.39</ele>
        <time>2018-01-28T10:37:08Z</time>
      </trkpt>
      <trkpt lat="44.44614" lon="4.07522">
        <ele>415.19</ele>
        <time>2018-01-28T10:37:30Z</time>
      </trkpt>
      <trkpt lat="44.44622" lon="4.07546">
        <ele>418.82</ele>
        <time>2018-01-28T10:37:50Z</time>
      </trkpt>
      <trkpt lat="44.44626" lon="4.07572">
        <ele>417.88</ele>
        <time>2018-01-28T10:38:14Z</time>
      </trkpt>
      <trkpt lat="44.44636" lon="4.07597">
        <ele>424.72</ele>
        <time>2018-01-28T10:38:38Z</time>
      </trkpt>
      <trkpt lat="44.44653" lon="4.07612">
        <ele>424.74</ele>
        <time>2018-01-28T10:39:00Z</time>
      </trkpt>
      <trkpt lat="44.4467" lon="4.07625">
        <ele>424.12</ele>
        <time>2018-01-28T10:39:16Z</time>
      </trkpt>
      <trkpt lat="44.44689" lon="4.07624">
        <ele>434.55</ele>
        <time>2018-01-28T10:39:40Z</time>
      </trkpt>
      <trkpt lat="44.447" lon="4.07647">
        <ele>433.67</ele>
        <time>2018-01-28T10:40:02Z</time>
      </trkpt>
      <trkpt lat="44.44719" lon="4.07658">
        <ele>435.28</ele>
        <time>2018-01-28T10:41:24Z</time>
      </trkpt>
      <trkpt lat="44.44731" lon="4.0768">
        <ele>427.27</ele>
        <time>2018-01-28T10:42:00Z</time>
      </trkpt>
      <trkpt lat="44.44748" lon="4.07689">
        <ele>439.5</ele>
        <time>2018-01-28T10:42:46Z</time>
      </trkpt>
      <trkpt lat="44.44765" lon="4.07701">
        <ele>447.53</ele>
        <time>2018-01-28T10:43:06Z</time>
      </trkpt>
      <trkpt lat="44.44778" lon="4.07684">
        <ele>442.32</ele>
        <time>2018-01-28T10:43:22Z</time>
      </trkpt>
      <trkpt lat="44.44792" lon="4.07664">
        <ele>449.23</ele>
        <time>2018-01-28T10:43:44Z</time>
      </trkpt>
      <trkpt lat="44.44803" lon="4.07643">
        <ele>452.59</ele>
        <time>2018-01-28T10:44:06Z</time>
      </trkpt>
      <trkpt lat="44.44814" lon="4.07623">
        <ele>452.73</ele>
        <time>2018-01-28T10:44:22Z</time>
      </trkpt>
      <trkpt lat="44.44825" lon="4.07602">
        <ele>453.57</ele>
        <time>2018-01-28T10:44:48Z</time>
      </trkpt>
      <trkpt lat="44.44833" lon="4.07579">
        <ele>455.57</ele>
        <time>2018-01-28T10:45:06Z</time>
      </trkpt>
      <trkpt lat="44.44842" lon="4.07554">
        <ele>454.95</ele>
        <time>2018-01-28T10:45:28Z</time>
      </trkpt>
      <trkpt lat="44.4485" lon="4.07531">
        <ele>461.03</ele>
        <time>2018-01-28T10:45:50Z</time>
      </trkpt>
      <trkpt lat="44.44851" lon="4.07505">
        <ele>462.65</ele>
        <time>2018-01-28T10:46:22Z</time>
      </trkpt>
      <trkpt lat="44.44866" lon="4.0749">
        <ele>467.56</ele>
        <time>2018-01-28T10:46:34Z</time>
      </trkpt>
      <trkpt lat="44.44875" lon="4.07468">
        <ele>465.57</ele>
        <time>2018-01-28T10:46:52Z</time>
      </trkpt>
      <trkpt lat="44.4488" lon="4.07443">
        <ele>473.01</ele>
        <time>2018-01-28T10:47:54Z</time>
      </trkpt>
      <trkpt lat="44.44893" lon="4.0742">
        <ele>473.75</ele>
        <time>2018-01-28T10:48:18Z</time>
      </trkpt>
      <trkpt lat="44.44899" lon="4.07393">
        <ele>479.57</ele>
        <time>2018-01-28T10:48:32Z</time>
      </trkpt>
      <trkpt lat="44.44917" lon="4.07381">
        <ele>480.14</ele>
        <time>2018-01-28T10:48:46Z</time>
      </trkpt>
      <trkpt lat="44.44899" lon="4.07387">
        <ele>485.54</ele>
        <time>2018-01-28T10:49:04Z</time>
      </trkpt>
      <trkpt lat="44.44883" lon="4.07403">
        <ele>485.65</ele>
        <time>2018-01-28T10:49:26Z</time>
      </trkpt>
      <trkpt lat="44.44866" lon="4.07416">
        <ele>487.51</ele>
        <time>2018-01-28T10:49:46Z</time>
      </trkpt>
      <trkpt lat="44.44873" lon="4.07392">
        <ele>479.66</ele>
        <time>2018-01-28T10:50:40Z</time>
      </trkpt>
      <trkpt lat="44.44883" lon="4.0737">
        <ele>492.67</ele>
        <time>2018-01-28T10:51:22Z</time>
      </trkpt>
      <trkpt lat="44.44871" lon="4.0735">
        <ele>499.65</ele>
        <time>2018-01-28T10:52:12Z</time>
      </trkpt>
      <trkpt lat="44.44853" lon="4.07345">
        <ele>492.31</ele>
        <time>2018-01-28T10:53:02Z</time>
      </trkpt>
      <trkpt lat="44.44859" lon="4.07317">
        <ele>496.9</ele>
        <time>2018-01-28T10:54:36Z</time>
      </trkpt>
      <trkpt lat="44.44877" lon="4.07297">
        <ele>508.45</ele>
        <time>2018-01-28T10:55:10Z</time>
      </trkpt>
      <trkpt lat="44.44891" lon="4.07279">
        <ele>520.82</ele>
        <time>2018-01-28T10:55:24Z</time>
      </trkpt>
      <trkpt lat="44.44899" lon="4.07257">
        <ele>517.68</ele>
        <time>2018-01-28T10:55:58Z</time>
      </trkpt>
      <trkpt lat="44.4491" lon="4.07232">
        <ele>524.82</ele>
        <time>2018-01-28T10:56:36Z</time>
      </trkpt>
      <trkpt lat="44.44923" lon="4.07214">
        <ele>524.02</ele>
        <time>2018-01-28T10:56:50Z</time>
      </trkpt>
      <trkpt lat="44.44921" lon="4.07188">
        <ele>529.26</ele>
        <time>2018-01-28T10:57:20Z</time>
      </trkpt>
      <trkpt lat="44.44916" lon="4.07162">
        <ele>533.85</ele>
        <time>2018-01-28T10:57:44Z</time>
      </trkpt>
      <trkpt lat="44.4491" lon="4.07139">
        <ele>529.87</ele>
        <time>2018-01-28T10:58:04Z</time>
      </trkpt>
      <trkpt lat="44.449" lon="4.07117">
        <ele>527.46</ele>
        <time>2018-01-28T10:59:04Z</time>
      </trkpt>
      <trkpt lat="44.44905" lon="4.07091">
        <ele>518.46</ele>
        <time>2018-01-28T10:59:56Z</time>
      </trkpt>
      <trkpt lat="44.44895" lon="4.07067">
        <ele>517.67</ele>
        <time>2018-01-28T11:00:22Z</time>
      </trkpt>
      <trkpt lat="44.44893" lon="4.07041">
        <ele>511.42</ele>
        <time>2018-01-28T11:00:38Z</time>
      </trkpt>
      <trkpt lat="44.44888" lon="4.07016">
        <ele>515.04</ele>
        <time>2018-01-28T11:01:00Z</time>
      </trkpt>
      <trkpt lat="44.44893" lon="4.0699">
        <ele>510.79</ele>
        <time>2018-01-28T11:01:14Z</time>
      </trkpt>
      <trkpt lat="44.44909" lon="4.06971">
        <ele>508.59</ele>
        <time>2018-01-28T11:01:48Z</time>
      </trkpt>
      <trkpt lat="44.44918" lon="4.06949">
        <ele>515.4</ele>
        <time>2018-01-28T11:02:06Z</time>
      </trkpt>
      <trkpt lat="44.44923" lon="4.06924">
        <ele>519.01</ele>
        <time>2018-01-28T11:02:36Z</time>
      </trkpt>
      <trkpt lat="44.44936" lon="4.06906">
        <ele>523.75</ele>
        <time>2018-01-28T11:02:52Z</time>
      </trkpt>
      <trkpt lat="44.44948" lon="4.06883">
        <ele>526.71</ele>
        <time>2018-01-28T11:03:10Z</time>
      </trkpt>
      <trkpt lat="44.44965" lon="4.06867">
        <ele>525.51</ele>
        <time>2018-01-28T11:03:48Z</time>
      </trkpt>
      <trkpt lat="44.4498" lon="4.06852">
        <ele>522.79</ele>
        <time>2018-01-28T11:04:32Z</time>
      </trkpt>
      <trkpt lat="44.44994" lon="4.06833">
        <ele>510.34</ele>
        <time>2018-01-28T11:05:00Z</time>
      </trkpt>
      <trkpt lat="44.45009" lon="4.06817">
        <ele>535.07</ele>
        <time>2018-01-28T11:05:52Z</time>
      </trkpt>
      <trkpt lat="44.45021" lon="4.06798">
        <ele>537.63</ele>
        <time>2018-01-28T11:06:06Z</time>
      </trkpt>
      <trkpt lat="44.45036" lon="4.06775">
        <ele>535.58</ele>
        <time>2018-01-28T11:07:12Z</time>
      </trkpt>
      <trkpt lat="44.45048" lon="4.06756">
        <ele>531.59</ele>
        <time>2018-01-28T11:07:30Z</time>
      </trkpt>
      <trkpt lat="44.45064" lon="4.06741">
        <ele>532.5</ele>
        <time>2018-01-28T11:07:42Z</time>
      </trkpt>
      <trkpt lat="44.45063" lon="4.06715">
        <ele>526.1</ele>
        <time>2018-01-28T11:08:42Z</time>
      </trkpt>
      <trkpt lat="44.45076" lon="4.06697">
        <ele>528.29</ele>
        <time>2018-01-28T11:08:58Z</time>
      </trkpt>
      <trkpt lat="44.45082" lon="4.06672">
        <ele>529.59</ele>
        <time>2018-01-28T11:09:36Z</time>
      </trkpt>
      <trkpt lat="44.451" lon="4.06662">
        <ele>531.75</ele>
        <time>2018-01-28T11:10:02Z</time>
      </trkpt>
      <trkpt lat="44.45117" lon="4.06649">
        <ele>534.41</ele>
        <time>2018-01-28T11:10:28Z</time>
      </trkpt>
      <trkpt lat="44.45132" lon="4.06635">
        <ele>537.79</ele>
        <time>2018-01-28T11:10:54Z</time>
      </trkpt>
      <trkpt lat="44.45151" lon="4.06624">
        <ele>529.74</ele>
        <time>2018-01-28T11:11:20Z</time>
      </trkpt>
      <trkpt lat="44.45166" lon="4.066">
        <ele>532.52</ele>
        <time>2018-01-28T11:12:36Z</time>
      </trkpt>
      <trkpt lat="44.45183" lon="4.06582">
        <ele>531.46</ele>
        <time>2018-01-28T11:12:56Z</time>
      </trkpt>
      <trkpt lat="44.452" lon="4.06566">
        <ele>529.52</ele>
        <time>2018-01-28T11:13:12Z</time>
      </trkpt>
      <trkpt lat="44.45219" lon="4.06558">
        <ele>530.92</ele>
        <time>2018-01-28T11:14:10Z</time>
      </trkpt>
      <trkpt lat="44.45235" lon="4.06544">
        <ele>532.15</ele>
        <time>2018-01-28T11:14:24Z</time>
      </trkpt>
      <trkpt lat="44.45255" lon="4.06542">
        <ele>532.99</ele>
        <time>2018-01-28T11:14:42Z</time>
      </trkpt>
      <trkpt lat="44.45274" lon="4.06535">
        <ele>534.31</ele>
        <time>2018-01-28T11:15:22Z</time>
      </trkpt>
      <trkpt lat="44.45291" lon="4.06521">
        <ele>535.26</ele>
        <time>2018-01-28T11:16:00Z</time>
      </trkpt>
      <trkpt lat="44.45311" lon="4.06507">
        <ele>534.29</ele>
        <time>2018-01-28T11:16:48Z</time>
      </trkpt>
      <trkpt lat="44.45329" lon="4.06496">
        <ele>530.27</ele>
        <time>2018-01-28T11:17:02Z</time>
      </trkpt>
      <trkpt lat="44.45346" lon="4.06503">
        <ele>519.08</ele>
        <time>2018-01-28T11:17:20Z</time>
      </trkpt>
      <trkpt lat="44.45355" lon="4.06481">
        <ele>529.91</ele>
        <time>2018-01-28T11:21:04Z</time>
      </trkpt>
      <trkpt lat="44.45357" lon="4.06455">
        <ele>538.71</ele>
        <time>2018-01-28T11:21:20Z</time>
      </trkpt>
      <trkpt lat="44.45359" lon="4.06429">
        <ele>535.96</ele>
        <time>2018-01-28T11:22:08Z</time>
      </trkpt>
      <trkpt lat="44.45353" lon="4.06403">
        <ele>540.31</ele>
        <time>2018-01-28T11:22:20Z</time>
      </trkpt>
      <trkpt lat="44.45363" lon="4.06381">
        <ele>539.08</ele>
        <time>2018-01-28T11:22:56Z</time>
      </trkpt>
      <trkpt lat="44.45343" lon="4.06373">
        <ele>540.78</ele>
        <time>2018-01-28T11:23:52Z</time>
      </trkpt>
      <trkpt lat="44.4533" lon="4.06351">
        <ele>542.13</ele>
        <time>2018-01-28T11:24:28Z</time>
      </trkpt>
      <trkpt lat="44.45314" lon="4.06336">
        <ele>541.98</ele>
        <time>2018-01-28T11:24:46Z</time>
      </trkpt>
      <trkpt lat="44.45299" lon="4.06324">
        <ele>545.66</ele>
        <time>2018-01-28T11:24:56Z</time>
      </trkpt>
      <trkpt lat="44.45305" lon="4.06299">
        <ele>547.06</ele>
        <time>2018-01-28T11:25:10Z</time>
      </trkpt>
      <trkpt lat="44.45287" lon="4.06286">
        <ele>554.44</ele>
        <time>2018-01-28T11:26:00Z</time>
      </trkpt>
      <trkpt lat="44.45266" lon="4.06282">
        <ele>561.99</ele>
        <time>2018-01-28T11:26:32Z</time>
      </trkpt>
      <trkpt lat="44.45256" lon="4.0626">
        <ele>558.09</ele>
        <time>2018-01-28T11:27:08Z</time>
      </trkpt>
      <trkpt lat="44.45237" lon="4.06245">
        <ele>560.5</ele>
        <time>2018-01-28T11:29:00Z</time>
      </trkpt>
      <trkpt lat="44.45233" lon="4.06219">
        <ele>559.13</ele>
        <time>2018-01-28T11:30:02Z</time>
      </trkpt>
      <trkpt lat="44.45228" lon="4.06191">
        <ele>558.67</ele>
        <time>2018-01-28T11:30:16Z</time>
      </trkpt>
      <trkpt lat="44.45218" lon="4.06168">
        <ele>561.96</ele>
        <time>2018-01-28T11:30:38Z</time>
      </trkpt>
      <trkpt lat="44.45215" lon="4.06142">
        <ele>560.99</ele>
        <time>2018-01-28T11:31:02Z</time>
      </trkpt>
      <trkpt lat="44.45219" lon="4.06115">
        <ele>559.11</ele>
        <time>2018-01-28T11:31:48Z</time>
      </trkpt>
      <trkpt lat="44.45239" lon="4.06119">
        <ele>571.02</ele>
        <time>2018-01-28T11:33:54Z</time>
      </trkpt>
      <trkpt lat="44.45256" lon="4.06127">
        <ele>584.12</ele>
        <time>2018-01-28T11:36:16Z</time>
      </trkpt>
      <trkpt lat="44.45275" lon="4.06123">
        <ele>594.34</ele>
        <time>2018-01-28T11:37:40Z</time>
      </trkpt>
      <trkpt lat="44.45292" lon="4.06112">
        <ele>598</ele>
        <time>2018-01-28T11:38:34Z</time>
      </trkpt>
      <trkpt lat="44.45274" lon="4.06122">
        <ele>590.16</ele>
        <time>2018-01-28T11:40:18Z</time>
      </trkpt>
      <trkpt lat="44.45257" lon="4.06126">
        <ele>582.74</ele>
        <time>2018-01-28T11:41:28Z</time>
      </trkpt>
      <trkpt lat="44.45238" lon="4.06116">
        <ele>575.39</ele>
        <time>2018-01-28T11:42:56Z</time>
      </trkpt>
      <trkpt lat="44.4522" lon="4.06103">
        <ele>565.58</ele>
        <time>2018-01-28T11:44:26Z</time>
      </trkpt>
      <trkpt lat="44.45227" lon="4.06078">
        <ele>556.7</ele>
        <time>2018-01-28T11:45:16Z</time>
      </trkpt>
      <trkpt lat="44.45239" lon="4.06058">
        <ele>554.52</ele>
        <time>2018-01-28T11:45:38Z</time>
      </trkpt>
      <trkpt lat="44.4525" lon="4.06036">
        <ele>555.16</ele>
        <time>2018-01-28T11:46:02Z</time>
      </trkpt>
      <trkpt lat="44.45267" lon="4.06025">
        <ele>549.8</ele>
        <time>2018-01-28T11:46:28Z</time>
      </trkpt>
      <trkpt lat="44.45277" lon="4.06002">
        <ele>549.27</ele>
        <time>2018-01-28T11:47:02Z</time>
      </trkpt>
      <trkpt lat="44.45282" lon="4.05975">
        <ele>549.24</ele>
        <time>2018-01-28T11:47:26Z</time>
      </trkpt>
      <trkpt lat="44.453" lon="4.05966">
        <ele>552.7</ele>
        <time>2018-01-28T11:47:42Z</time>
      </trkpt>
      <trkpt lat="44.4532" lon="4.05959">
        <ele>548.33</ele>
        <time>2018-01-28T11:48:08Z</time>
      </trkpt>
      <trkpt lat="44.45338" lon="4.05965">
        <ele>548.98</ele>
        <time>2018-01-28T11:48:18Z</time>
      </trkpt>
      <trkpt lat="44.45358" lon="4.05966">
        <ele>547.54</ele>
        <time>2018-01-28T11:48:36Z</time>
      </trkpt>
      <trkpt lat="44.45376" lon="4.05973">
        <ele>546.32</ele>
        <time>2018-01-28T11:50:19Z</time>
      </trkpt>
      <trkpt lat="44.45395" lon="4.05973">
        <ele>555.44</ele>
        <time>2018-01-28T11:50:45Z</time>
      </trkpt>
      <trkpt lat="44.45414" lon="4.05977">
        <ele>550.13</ele>
        <time>2018-01-28T11:50:57Z</time>
      </trkpt>
      <trkpt lat="44.45432" lon="4.05961">
        <ele>537.78</ele>
        <time>2018-01-28T11:52:43Z</time>
      </trkpt>
      <trkpt lat="44.45434" lon="4.05935">
        <ele>542.37</ele>
        <time>2018-01-28T11:53:59Z</time>
      </trkpt>
      <trkpt lat="44.45439" lon="4.05909">
        <ele>553.78</ele>
        <time>2018-01-28T11:54:35Z</time>
      </trkpt>
      <trkpt lat="44.4544" lon="4.05882">
        <ele>563.49</ele>
        <time>2018-01-28T11:55:31Z</time>
      </trkpt>
      <trkpt lat="44.45458" lon="4.0588">
        <ele>566.49</ele>
        <time>2018-01-28T11:56:07Z</time>
      </trkpt>
      <trkpt lat="44.4544" lon="4.05885">
        <ele>567.43</ele>
        <time>2018-01-28T11:59:07Z</time>
      </trkpt>
      <trkpt lat="44.45422" lon="4.0589">
        <ele>570.31</ele>
        <time>2018-01-28T11:59:23Z</time>
      </trkpt>
      <trkpt lat="44.45434" lon="4.05913">
        <ele>564.44</ele>
        <time>2018-01-28T13:02:06Z</time>
      </trkpt>
      <trkpt lat="44.45428" lon="4.05941">
        <ele>552.33</ele>
        <time>2018-01-28T13:02:34Z</time>
      </trkpt>
      <trkpt lat="44.4542" lon="4.05968">
        <ele>546.6</ele>
        <time>2018-01-28T13:04:00Z</time>
      </trkpt>
      <trkpt lat="44.45401" lon="4.05977">
        <ele>546.56</ele>
        <time>2018-01-28T13:04:52Z</time>
      </trkpt>
      <trkpt lat="44.45384" lon="4.05966">
        <ele>540.9</ele>
        <time>2018-01-28T13:05:14Z</time>
      </trkpt>
      <trkpt lat="44.45362" lon="4.05961">
        <ele>533.53</ele>
        <time>2018-01-28T13:05:22Z</time>
      </trkpt>
      <trkpt lat="44.45379" lon="4.0595">
        <ele>538.74</ele>
        <time>2018-01-28T13:07:25Z</time>
      </trkpt>
      <trkpt lat="44.45381" lon="4.05922">
        <ele>529.41</ele>
        <time>2018-01-28T13:07:46Z</time>
      </trkpt>
      <trkpt lat="44.45373" lon="4.05966">
        <ele>523.73</ele>
        <time>2018-01-28T13:08:04Z</time>
      </trkpt>
      <trkpt lat="44.45393" lon="4.05951">
        <ele>518.68</ele>
        <time>2018-01-28T13:08:40Z</time>
      </trkpt>
      <trkpt lat="44.45385" lon="4.05927">
        <ele>534.02</ele>
        <time>2018-01-28T13:09:10Z</time>
      </trkpt>
      <trkpt lat="44.45375" lon="4.05903">
        <ele>536.69</ele>
        <time>2018-01-28T13:09:42Z</time>
      </trkpt>
      <trkpt lat="44.45371" lon="4.05878">
        <ele>530.65</ele>
        <time>2018-01-28T13:11:16Z</time>
      </trkpt>
      <trkpt lat="44.4538" lon="4.05853">
        <ele>531.52</ele>
        <time>2018-01-28T13:18:24Z</time>
      </trkpt>
      <trkpt lat="44.45389" lon="4.05829">
        <ele>538.81</ele>
        <time>2018-01-28T13:19:34Z</time>
      </trkpt>
      <trkpt lat="44.454" lon="4.05808">
        <ele>531.75</ele>
        <time>2018-01-28T13:19:54Z</time>
      </trkpt>
      <trkpt lat="44.45399" lon="4.0578">
        <ele>530.71</ele>
        <time>2018-01-28T13:20:24Z</time>
      </trkpt>
      <trkpt lat="44.454" lon="4.05755">
        <ele>532.67</ele>
        <time>2018-01-28T13:20:54Z</time>
      </trkpt>
      <trkpt lat="44.45393" lon="4.05728">
        <ele>535.21</ele>
        <time>2018-01-28T13:21:10Z</time>
      </trkpt>
      <trkpt lat="44.45388" lon="4.05704">
        <ele>536.09</ele>
        <time>2018-01-28T13:21:38Z</time>
      </trkpt>
      <trkpt lat="44.45395" lon="4.05678">
        <ele>534.37</ele>
        <time>2018-01-28T13:22:04Z</time>
      </trkpt>
      <trkpt lat="44.4541" lon="4.05664">
        <ele>526.9</ele>
        <time>2018-01-28T13:22:30Z</time>
      </trkpt>
      <trkpt lat="44.4541" lon="4.05637">
        <ele>516.55</ele>
        <time>2018-01-28T13:23:22Z</time>
      </trkpt>
      <trkpt lat="44.45394" lon="4.0562">
        <ele>521.18</ele>
        <time>2018-01-28T13:24:40Z</time>
      </trkpt>
      <trkpt lat="44.45376" lon="4.0562">
        <ele>521.99</ele>
        <time>2018-01-28T13:24:54Z</time>
      </trkpt>
      <trkpt lat="44.45356" lon="4.05627">
        <ele>518.54</ele>
        <time>2018-01-28T13:25:32Z</time>
      </trkpt>
      <trkpt lat="44.45339" lon="4.05639">
        <ele>514.55</ele>
        <time>2018-01-28T13:26:42Z</time>
      </trkpt>
      <trkpt lat="44.45331" lon="4.05667">
        <ele>510.27</ele>
        <time>2018-01-28T13:27:58Z</time>
      </trkpt>
      <trkpt lat="44.45323" lon="4.05691">
        <ele>519.65</ele>
        <time>2018-01-28T13:28:24Z</time>
      </trkpt>
      <trkpt lat="44.45314" lon="4.05717">
        <ele>518.15</ele>
        <time>2018-01-28T13:29:34Z</time>
      </trkpt>
      <trkpt lat="44.45309" lon="4.05745">
        <ele>512.45</ele>
        <time>2018-01-28T13:29:44Z</time>
      </trkpt>
      <trkpt lat="44.45318" lon="4.05767">
        <ele>495.01</ele>
        <time>2018-01-28T13:30:22Z</time>
      </trkpt>
      <trkpt lat="44.45309" lon="4.0579">
        <ele>490.45</ele>
        <time>2018-01-28T13:31:04Z</time>
      </trkpt>
      <trkpt lat="44.45303" lon="4.05815">
        <ele>485.04</ele>
        <time>2018-01-28T13:31:16Z</time>
      </trkpt>
      <trkpt lat="44.45304" lon="4.05843">
        <ele>489.4</ele>
        <time>2018-01-28T13:31:48Z</time>
      </trkpt>
      <trkpt lat="44.45293" lon="4.05865">
        <ele>482.53</ele>
        <time>2018-01-28T13:33:16Z</time>
      </trkpt>
      <trkpt lat="44.45275" lon="4.05863">
        <ele>484.46</ele>
        <time>2018-01-28T13:33:54Z</time>
      </trkpt>
      <trkpt lat="44.45254" lon="4.05867">
        <ele>483.08</ele>
        <time>2018-01-28T13:34:10Z</time>
      </trkpt>
      <trkpt lat="44.45235" lon="4.05873">
        <ele>482.15</ele>
        <time>2018-01-28T13:34:22Z</time>
      </trkpt>
      <trkpt lat="44.45215" lon="4.05874">
        <ele>491.12</ele>
        <time>2018-01-28T13:35:14Z</time>
      </trkpt>
      <trkpt lat="44.45199" lon="4.05885">
        <ele>498.61</ele>
        <time>2018-01-28T13:35:40Z</time>
      </trkpt>
      <trkpt lat="44.45181" lon="4.05883">
        <ele>501.36</ele>
        <time>2018-01-28T13:36:04Z</time>
      </trkpt>
      <trkpt lat="44.45173" lon="4.05906">
        <ele>498</ele>
        <time>2018-01-28T13:36:20Z</time>
      </trkpt>
      <trkpt lat="44.45153" lon="4.05909">
        <ele>484.82</ele>
        <time>2018-01-28T13:37:44Z</time>
      </trkpt>
      <trkpt lat="44.45137" lon="4.05923">
        <ele>485.54</ele>
        <time>2018-01-28T13:39:48Z</time>
      </trkpt>
      <trkpt lat="44.45126" lon="4.05946">
        <ele>486.98</ele>
        <time>2018-01-28T13:40:04Z</time>
      </trkpt>
      <trkpt lat="44.45108" lon="4.05955">
        <ele>484.37</ele>
        <time>2018-01-28T13:40:28Z</time>
      </trkpt>
      <trkpt lat="44.45092" lon="4.05967">
        <ele>487.79</ele>
        <time>2018-01-28T13:40:48Z</time>
      </trkpt>
      <trkpt lat="44.45074" lon="4.05972">
        <ele>495.08</ele>
        <time>2018-01-28T13:41:16Z</time>
      </trkpt>
      <trkpt lat="44.45058" lon="4.05985">
        <ele>493.83</ele>
        <time>2018-01-28T13:41:34Z</time>
      </trkpt>
      <trkpt lat="44.45053" lon="4.06014">
        <ele>480.31</ele>
        <time>2018-01-28T13:41:52Z</time>
      </trkpt>
      <trkpt lat="44.45036" lon="4.06004">
        <ele>477.98</ele>
        <time>2018-01-28T13:42:44Z</time>
      </trkpt>
      <trkpt lat="44.45022" lon="4.0602">
        <ele>469.46</ele>
        <time>2018-01-28T13:43:56Z</time>
      </trkpt>
      <trkpt lat="44.45008" lon="4.06004">
        <ele>449.79</ele>
        <time>2018-01-28T13:45:22Z</time>
      </trkpt>
      <trkpt lat="44.44992" lon="4.06016">
        <ele>446</ele>
        <time>2018-01-28T13:47:02Z</time>
      </trkpt>
      <trkpt lat="44.44986" lon="4.06042">
        <ele>444.36</ele>
        <time>2018-01-28T13:47:58Z</time>
      </trkpt>
      <trkpt lat="44.44979" lon="4.06067">
        <ele>442.05</ele>
        <time>2018-01-28T13:48:16Z</time>
      </trkpt>
      <trkpt lat="44.44967" lon="4.06095">
        <ele>441.57</ele>
        <time>2018-01-28T13:48:34Z</time>
      </trkpt>
      <trkpt lat="44.44957" lon="4.06116">
        <ele>440.11</ele>
        <time>2018-01-28T13:48:56Z</time>
      </trkpt>
      <trkpt lat="44.44956" lon="4.06144">
        <ele>432.61</ele>
        <time>2018-01-28T13:49:20Z</time>
      </trkpt>
      <trkpt lat="44.44955" lon="4.06172">
        <ele>432.5</ele>
        <time>2018-01-28T13:49:40Z</time>
      </trkpt>
      <trkpt lat="44.44955" lon="4.062">
        <ele>435.06</ele>
        <time>2018-01-28T13:50:00Z</time>
      </trkpt>
      <trkpt lat="44.44953" lon="4.06226">
        <ele>433.88</ele>
        <time>2018-01-28T13:50:30Z</time>
      </trkpt>
      <trkpt lat="44.44954" lon="4.06252">
        <ele>428.76</ele>
        <time>2018-01-28T13:50:52Z</time>
      </trkpt>
      <trkpt lat="44.44949" lon="4.06278">
        <ele>424.75</ele>
        <time>2018-01-28T13:51:04Z</time>
      </trkpt>
      <trkpt lat="44.4496" lon="4.06301">
        <ele>429.24</ele>
        <time>2018-01-28T13:51:22Z</time>
      </trkpt>
      <trkpt lat="44.44978" lon="4.06313">
        <ele>431.5</ele>
        <time>2018-01-28T13:52:12Z</time>
      </trkpt>
      <trkpt lat="44.4499" lon="4.06332">
        <ele>431.19</ele>
        <time>2018-01-28T13:52:36Z</time>
      </trkpt>
      <trkpt lat="44.45003" lon="4.0635">
        <ele>428.94</ele>
        <time>2018-01-28T13:52:50Z</time>
      </trkpt>
      <trkpt lat="44.4501" lon="4.06374">
        <ele>435.59</ele>
        <time>2018-01-28T14:08:18Z</time>
      </trkpt>
      <trkpt lat="44.45017" lon="4.06399">
        <ele>436.44</ele>
        <time>2018-01-28T14:08:30Z</time>
      </trkpt>
      <trkpt lat="44.45017" lon="4.06425">
        <ele>444.91</ele>
        <time>2018-01-28T14:09:20Z</time>
      </trkpt>
      <trkpt lat="44.45014" lon="4.06451">
        <ele>452.55</ele>
        <time>2018-01-28T14:09:28Z</time>
      </trkpt>
      <trkpt lat="44.45019" lon="4.06476">
        <ele>446.64</ele>
        <time>2018-01-28T14:09:40Z</time>
      </trkpt>
      <trkpt lat="44.45" lon="4.06484">
        <ele>451.14</ele>
        <time>2018-01-28T14:10:10Z</time>
      </trkpt>
      <trkpt lat="44.44989" lon="4.06504">
        <ele>443.51</ele>
        <time>2018-01-28T14:10:28Z</time>
      </trkpt>
      <trkpt lat="44.44977" lon="4.06524">
        <ele>431.94</ele>
        <time>2018-01-28T14:11:40Z</time>
      </trkpt>
      <trkpt lat="44.44965" lon="4.06545">
        <ele>432.3</ele>
        <time>2018-01-28T14:13:40Z</time>
      </trkpt>
      <trkpt lat="44.44952" lon="4.06563">
        <ele>428.28</ele>
        <time>2018-01-28T14:13:48Z</time>
      </trkpt>
      <trkpt lat="44.44939" lon="4.06587">
        <ele>430.33</ele>
        <time>2018-01-28T14:13:58Z</time>
      </trkpt>
      <trkpt lat="44.44926" lon="4.0661">
        <ele>428.53</ele>
        <time>2018-01-28T14:14:12Z</time>
      </trkpt>
      <trkpt lat="44.4491" lon="4.06627">
        <ele>432.54</ele>
        <time>2018-01-28T14:14:34Z</time>
      </trkpt>
      <trkpt lat="44.449" lon="4.0665">
        <ele>430.92</ele>
        <time>2018-01-28T14:14:52Z</time>
      </trkpt>
      <trkpt lat="44.44887" lon="4.06667">
        <ele>433.27</ele>
        <time>2018-01-28T14:15:14Z</time>
      </trkpt>
      <trkpt lat="44.44868" lon="4.06663">
        <ele>433.23</ele>
        <time>2018-01-28T14:15:36Z</time>
      </trkpt>
      <trkpt lat="44.44851" lon="4.06674">
        <ele>429.57</ele>
        <time>2018-01-28T14:15:56Z</time>
      </trkpt>
      <trkpt lat="44.44832" lon="4.06677">
        <ele>432.47</ele>
        <time>2018-01-28T14:16:10Z</time>
      </trkpt>
      <trkpt lat="44.44813" lon="4.06685">
        <ele>429.3</ele>
        <time>2018-01-28T14:16:40Z</time>
      </trkpt>
      <trkpt lat="44.44794" lon="4.06678">
        <ele>428.8</ele>
        <time>2018-01-28T14:16:50Z</time>
      </trkpt>
      <trkpt lat="44.44776" lon="4.06664">
        <ele>430.71</ele>
        <time>2018-01-28T14:17:08Z</time>
      </trkpt>
      <trkpt lat="44.44757" lon="4.06668">
        <ele>432.1</ele>
        <time>2018-01-28T14:17:26Z</time>
      </trkpt>
      <trkpt lat="44.44741" lon="4.06681">
        <ele>432.63</ele>
        <time>2018-01-28T14:17:48Z</time>
      </trkpt>
      <trkpt lat="44.44721" lon="4.0669">
        <ele>429.03</ele>
        <time>2018-01-28T14:18:26Z</time>
      </trkpt>
      <trkpt lat="44.44703" lon="4.06703">
        <ele>433.05</ele>
        <time>2018-01-28T14:18:36Z</time>
      </trkpt>
      <trkpt lat="44.44701" lon="4.06731">
        <ele>433.5</ele>
        <time>2018-01-28T14:19:22Z</time>
      </trkpt>
      <trkpt lat="44.44705" lon="4.06756">
        <ele>427.72</ele>
        <time>2018-01-28T14:19:38Z</time>
      </trkpt>
      <trkpt lat="44.44711" lon="4.06786">
        <ele>430.02</ele>
        <time>2018-01-28T14:23:28Z</time>
      </trkpt>
      <trkpt lat="44.44719" lon="4.06808">
        <ele>422.84</ele>
        <time>2018-01-28T14:23:40Z</time>
      </trkpt>
      <trkpt lat="44.44725" lon="4.06833">
        <ele>426.46</ele>
        <time>2018-01-28T14:23:56Z</time>
      </trkpt>
      <trkpt lat="44.44731" lon="4.06858">
        <ele>423.94</ele>
        <time>2018-01-28T14:24:14Z</time>
      </trkpt>
      <trkpt lat="44.44737" lon="4.06883">
        <ele>418.19</ele>
        <time>2018-01-28T14:24:34Z</time>
      </trkpt>
      <trkpt lat="44.44743" lon="4.06908">
        <ele>420.28</ele>
        <time>2018-01-28T14:24:48Z</time>
      </trkpt>
      <trkpt lat="44.44744" lon="4.06935">
        <ele>420.54</ele>
        <time>2018-01-28T14:25:04Z</time>
      </trkpt>
      <trkpt lat="44.44746" lon="4.06961">
        <ele>414.12</ele>
        <time>2018-01-28T14:25:28Z</time>
      </trkpt>
      <trkpt lat="44.44748" lon="4.06986">
        <ele>425.57</ele>
        <time>2018-01-28T14:25:44Z</time>
      </trkpt>
      <trkpt lat="44.44743" lon="4.07012">
        <ele>438.24</ele>
        <time>2018-01-28T14:26:06Z</time>
      </trkpt>
      <trkpt lat="44.44735" lon="4.07036">
        <ele>439.62</ele>
        <time>2018-01-28T14:26:22Z</time>
      </trkpt>
      <trkpt lat="44.44734" lon="4.07064">
        <ele>442.13</ele>
        <time>2018-01-28T14:26:34Z</time>
      </trkpt>
      <trkpt lat="44.44719" lon="4.07079">
        <ele>442.62</ele>
        <time>2018-01-28T14:26:56Z</time>
      </trkpt>
      <trkpt lat="44.44703" lon="4.07094">
        <ele>435.88</ele>
        <time>2018-01-28T14:27:20Z</time>
      </trkpt>
      <trkpt lat="44.44683" lon="4.07093">
        <ele>434.65</ele>
        <time>2018-01-28T14:27:40Z</time>
      </trkpt>
      <trkpt lat="44.44665" lon="4.07107">
        <ele>439.77</ele>
        <time>2018-01-28T14:27:50Z</time>
      </trkpt>
      <trkpt lat="44.44664" lon="4.07134">
        <ele>448.07</ele>
        <time>2018-01-28T14:28:16Z</time>
      </trkpt>
      <trkpt lat="44.44657" lon="4.07157">
        <ele>444.78</ele>
        <time>2018-01-28T14:28:36Z</time>
      </trkpt>
      <trkpt lat="44.44657" lon="4.07183">
        <ele>437.13</ele>
        <time>2018-01-28T14:28:56Z</time>
      </trkpt>
      <trkpt lat="44.44656" lon="4.07209">
        <ele>435.92</ele>
        <time>2018-01-28T14:29:14Z</time>
      </trkpt>
      <trkpt lat="44.44661" lon="4.07235">
        <ele>437.84</ele>
        <time>2018-01-28T14:30:24Z</time>
      </trkpt>
      <trkpt lat="44.44647" lon="4.07253">
        <ele>443.92</ele>
        <time>2018-01-28T14:30:32Z</time>
      </trkpt>
      <trkpt lat="44.44634" lon="4.07274">
        <ele>449.47</ele>
        <time>2018-01-28T14:30:46Z</time>
      </trkpt>
      <trkpt lat="44.44618" lon="4.07322">
        <ele>442.18</ele>
        <time>2018-01-28T14:31:30Z</time>
      </trkpt>
      <trkpt lat="44.44606" lon="4.07341">
        <ele>434.14</ele>
        <time>2018-01-28T14:31:52Z</time>
      </trkpt>
      <trkpt lat="44.44618" lon="4.07363">
        <ele>435.07</ele>
        <time>2018-01-28T14:32:04Z</time>
      </trkpt>
      <trkpt lat="44.44616" lon="4.07389">
        <ele>436.13</ele>
        <time>2018-01-28T14:33:04Z</time>
      </trkpt>
      <trkpt lat="44.44618" lon="4.07417">
        <ele>438.49</ele>
        <time>2018-01-28T14:33:14Z</time>
      </trkpt>
      <trkpt lat="44.44619" lon="4.07443">
        <ele>425.4</ele>
        <time>2018-01-28T14:33:40Z</time>
      </trkpt>
      <trkpt lat="44.44618" lon="4.0747">
        <ele>428.56</ele>
        <time>2018-01-28T14:33:58Z</time>
      </trkpt>
      <trkpt lat="44.44604" lon="4.0749">
        <ele>435.67</ele>
        <time>2018-01-28T14:34:14Z</time>
      </trkpt>
      <trkpt lat="44.44608" lon="4.07515">
        <ele>427.8</ele>
        <time>2018-01-28T14:34:32Z</time>
      </trkpt>
      <trkpt lat="44.44614" lon="4.07541">
        <ele>428.14</ele>
        <time>2018-01-28T14:34:52Z</time>
      </trkpt>
      <trkpt lat="44.44619" lon="4.07566">
        <ele>429.1</ele>
        <time>2018-01-28T14:35:14Z</time>
      </trkpt>
      <trkpt lat="44.4462" lon="4.07593">
        <ele>424.53</ele>
        <time>2018-01-28T14:35:38Z</time>
      </trkpt>
      <trkpt lat="44.44626" lon="4.07617">
        <ele>421.5</ele>
        <time>2018-01-28T14:36:18Z</time>
      </trkpt>
      <trkpt lat="44.4464" lon="4.07637">
        <ele>416.38</ele>
        <time>2018-01-28T14:36:34Z</time>
      </trkpt>
      <trkpt lat="44.4465" lon="4.07658">
        <ele>415.49</ele>
        <time>2018-01-28T14:36:50Z</time>
      </trkpt>
      <trkpt lat="44.4466" lon="4.07681">
        <ele>411.63</ele>
        <time>2018-01-28T14:37:08Z</time>
      </trkpt>
      <trkpt lat="44.44674" lon="4.07697">
        <ele>406.9</ele>
        <time>2018-01-28T14:37:30Z</time>
      </trkpt>
      <trkpt lat="44.44689" lon="4.07712">
        <ele>403.37</ele>
        <time>2018-01-28T14:37:56Z</time>
      </trkpt>
      <trkpt lat="44.447" lon="4.07736">
        <ele>403.49</ele>
        <time>2018-01-28T14:38:14Z</time>
      </trkpt>
      <trkpt lat="44.44711" lon="4.07757">
        <ele>405.43</ele>
        <time>2018-01-28T14:38:30Z</time>
      </trkpt>
      <trkpt lat="44.44724" lon="4.07778">
        <ele>401.03</ele>
        <time>2018-01-28T14:38:48Z</time>
      </trkpt>
      <trkpt lat="44.44727" lon="4.07805">
        <ele>405.39</ele>
        <time>2018-01-28T14:39:26Z</time>
      </trkpt>
      <trkpt lat="44.44744" lon="4.07819">
        <ele>399.2</ele>
        <time>2018-01-28T14:39:42Z</time>
      </trkpt>
      <trkpt lat="44.44758" lon="4.07835">
        <ele>396.3</ele>
        <time>2018-01-28T14:40:08Z</time>
      </trkpt>
      <trkpt lat="44.44764" lon="4.07859">
        <ele>397.43</ele>
        <time>2018-01-28T14:41:08Z</time>
      </trkpt>
      <trkpt lat="44.44746" lon="4.07853">
        <ele>405.08</ele>
        <time>2018-01-28T14:41:36Z</time>
      </trkpt>
      <trkpt lat="44.44726" lon="4.0785">
        <ele>401.99</ele>
        <time>2018-01-28T14:42:06Z</time>
      </trkpt>
      <trkpt lat="44.44708" lon="4.07843">
        <ele>397.48</ele>
        <time>2018-01-28T14:42:32Z</time>
      </trkpt>
      <trkpt lat="44.44693" lon="4.07829">
        <ele>396.94</ele>
        <time>2018-01-28T14:42:50Z</time>
      </trkpt>
      <trkpt lat="44.44674" lon="4.07822">
        <ele>396.45</ele>
        <time>2018-01-28T14:43:04Z</time>
      </trkpt>
      <trkpt lat="44.44682" lon="4.07846">
        <ele>383.3</ele>
        <time>2018-01-28T14:44:24Z</time>
      </trkpt>
      <trkpt lat="44.44694" lon="4.07867">
        <ele>381.9</ele>
        <time>2018-01-28T14:44:34Z</time>
      </trkpt>
      <trkpt lat="44.44709" lon="4.07886">
        <ele>374.82</ele>
        <time>2018-01-28T14:45:00Z</time>
      </trkpt>
      <trkpt lat="44.44736" lon="4.07932">
        <ele>367.1</ele>
        <time>2018-01-28T14:45:56Z</time>
      </trkpt>
      <trkpt lat="44.44754" lon="4.07934">
        <ele>359.99</ele>
        <time>2018-01-28T14:46:44Z</time>
      </trkpt>
      <trkpt lat="44.44774" lon="4.07946">
        <ele>360.2</ele>
        <time>2018-01-28T14:47:04Z</time>
      </trkpt>
      <trkpt lat="44.44791" lon="4.07964">
        <ele>353.85</ele>
        <time>2018-01-28T14:47:18Z</time>
      </trkpt>
      <trkpt lat="44.44792" lon="4.07989">
        <ele>328.25</ele>
        <time>2018-01-28T14:49:04Z</time>
      </trkpt>
      <trkpt lat="44.44804" lon="4.08012">
        <ele>316.61</ele>
        <time>2018-01-28T14:49:28Z</time>
      </trkpt>
      <trkpt lat="44.44811" lon="4.08037">
        <ele>322.31</ele>
        <time>2018-01-28T14:49:44Z</time>
      </trkpt>
      <trkpt lat="44.4482" lon="4.08059">
        <ele>320.06</ele>
        <time>2018-01-28T14:50:30Z</time>
      </trkpt>
      <trkpt lat="44.44801" lon="4.08048">
        <ele>322.8</ele>
        <time>2018-01-28T14:51:06Z</time>
      </trkpt>
      <trkpt lat="44.44789" lon="4.08027">
        <ele>321.55</ele>
        <time>2018-01-28T14:51:28Z</time>
      </trkpt>
      <trkpt lat="44.44767" lon="4.08025">
        <ele>313.71</ele>
        <time>2018-01-28T14:52:10Z</time>
      </trkpt>
      <trkpt lat="44.44747" lon="4.08022">
        <ele>316.85</ele>
        <time>2018-01-28T14:52:20Z</time>
      </trkpt>
      <trkpt lat="44.44731" lon="4.08033">
        <ele>312.97</ele>
        <time>2018-01-28T14:52:38Z</time>
      </trkpt>
      <trkpt lat="44.44711" lon="4.08033">
        <ele>315.57</ele>
        <time>2018-01-28T14:53:02Z</time>
      </trkpt>
      <trkpt lat="44.44693" lon="4.08026">
        <ele>309.9</ele>
        <time>2018-01-28T14:53:30Z</time>
      </trkpt>
      <trkpt lat="44.44674" lon="4.08025">
        <ele>306.29</ele>
        <time>2018-01-28T14:53:54Z</time>
      </trkpt>
      <trkpt lat="44.44687" lon="4.0805">
        <ele>290.51</ele>
        <time>2018-01-28T14:55:16Z</time>
      </trkpt>
      <trkpt lat="44.44702" lon="4.08072">
        <ele>296.33</ele>
        <time>2018-01-28T14:55:28Z</time>
      </trkpt>
      <trkpt lat="44.44695" lon="4.08096">
        <ele>302.45</ele>
        <time>2018-01-28T15:01:36Z</time>
      </trkpt>
      <trkpt lat="44.44676" lon="4.08101">
        <ele>303.06</ele>
        <time>2018-01-28T15:01:58Z</time>
      </trkpt>
      <trkpt lat="44.44693" lon="4.08114">
        <ele>309.25</ele>
        <time>2018-01-28T15:04:10Z</time>
      </trkpt>
      <trkpt lat="44.44699" lon="4.08137">
        <ele>314.63</ele>
        <time>2018-01-28T15:06:04Z</time>
      </trkpt>
      <trkpt lat="44.44717" lon="4.08144">
        <ele>306.7</ele>
        <time>2018-01-28T15:06:20Z</time>
      </trkpt>
      <trkpt lat="44.44699" lon="4.08155">
        <ele>320.96</ele>
        <time>2018-01-28T15:07:44Z</time>
      </trkpt>
      <trkpt lat="44.4468" lon="4.08155">
        <ele>326.31</ele>
        <time>2018-01-28T15:08:06Z</time>
      </trkpt>
      <trkpt lat="44.44664" lon="4.08172">
        <ele>323.98</ele>
        <time>2018-01-28T15:08:34Z</time>
      </trkpt>
      <trkpt lat="44.44682" lon="4.08183">
        <ele>330.55</ele>
        <time>2018-01-28T15:10:02Z</time>
      </trkpt>
      <trkpt lat="44.44667" lon="4.08196">
        <ele>338.4</ele>
        <time>2018-01-28T15:14:24Z</time>
      </trkpt>
      <trkpt lat="44.44654" lon="4.08215">
        <ele>345.73</ele>
        <time>2018-01-28T15:14:52Z</time>
      </trkpt>
      <trkpt lat="44.44673" lon="4.08218">
        <ele>346.63</ele>
        <time>2018-01-28T15:15:32Z</time>
      </trkpt>
      <trkpt lat="44.44692" lon="4.08221">
        <ele>348.11</ele>
        <time>2018-01-28T15:16:10Z</time>
      </trkpt>
      <trkpt lat="44.44711" lon="4.0822">
        <ele>347.81</ele>
        <time>2018-01-28T15:16:20Z</time>
      </trkpt>
      <trkpt lat="44.44695" lon="4.08234">
        <ele>360.81</ele>
        <time>2018-01-28T15:18:16Z</time>
      </trkpt>
      <trkpt lat="44.44679" lon="4.08251">
        <ele>366.92</ele>
        <time>2018-01-28T15:18:46Z</time>
      </trkpt>
      <trkpt lat="44.44665" lon="4.08268">
        <ele>366.48</ele>
        <time>2018-01-28T15:19:04Z</time>
      </trkpt>
      <trkpt lat="44.44652" lon="4.08291">
        <ele>371.22</ele>
        <time>2018-01-28T15:19:40Z</time>
      </trkpt>
      <trkpt lat="44.44652" lon="4.08317">
        <ele>371.24</ele>
        <time>2018-01-28T15:20:22Z</time>
      </trkpt>
      <trkpt lat="44.44652" lon="4.08343">
        <ele>376.56</ele>
        <time>2018-01-28T15:20:44Z</time>
      </trkpt>
      <trkpt lat="44.44643" lon="4.08367">
        <ele>380.65</ele>
        <time>2018-01-28T15:21:00Z</time>
      </trkpt>
      <trkpt lat="44.44648" lon="4.08393">
        <ele>373.97</ele>
        <time>2018-01-28T15:21:28Z</time>
      </trkpt>
      <trkpt lat="44.44646" lon="4.08421">
        <ele>379.68</ele>
        <time>2018-01-28T15:22:00Z</time>
      </trkpt>
      <trkpt lat="44.4465" lon="4.08448">
        <ele>388.67</ele>
        <time>2018-01-28T15:22:30Z</time>
      </trkpt>
      <trkpt lat="44.44656" lon="4.08472">
        <ele>393.77</ele>
        <time>2018-01-28T15:22:58Z</time>
      </trkpt>
      <trkpt lat="44.44665" lon="4.08496">
        <ele>393.99</ele>
        <time>2018-01-28T15:23:26Z</time>
      </trkpt>
      <trkpt lat="44.44655" lon="4.08517">
        <ele>397.09</ele>
        <time>2018-01-28T15:23:56Z</time>
      </trkpt>
      <trkpt lat="44.44654" lon="4.08544">
        <ele>403.39</ele>
        <time>2018-01-28T15:24:22Z</time>
      </trkpt>
      <trkpt lat="44.44636" lon="4.08527">
        <ele>408.65</ele>
        <time>2018-01-28T15:28:08Z</time>
      </trkpt>
      <trkpt lat="44.44618" lon="4.08528">
        <ele>410.68</ele>
        <time>2018-01-28T15:28:24Z</time>
      </trkpt>
      <trkpt lat="44.44608" lon="4.08506">
        <ele>415.29</ele>
        <time>2018-01-28T15:28:56Z</time>
      </trkpt>
      <trkpt lat="44.44591" lon="4.08493">
        <ele>417.34</ele>
        <time>2018-01-28T15:29:26Z</time>
      </trkpt>
      <trkpt lat="44.44578" lon="4.08473">
        <ele>418.59</ele>
        <time>2018-01-28T15:29:50Z</time>
      </trkpt>
      <trkpt lat="44.44569" lon="4.08449">
        <ele>422.64</ele>
        <time>2018-01-28T15:30:00Z</time>
      </trkpt>
      <trkpt lat="44.4455" lon="4.08447">
        <ele>427.98</ele>
        <time>2018-01-28T15:31:00Z</time>
      </trkpt>
      <trkpt lat="44.44531" lon="4.08441">
        <ele>427.68</ele>
        <time>2018-01-28T15:31:24Z</time>
      </trkpt>
      <trkpt lat="44.44517" lon="4.08425">
        <ele>430.89</ele>
        <time>2018-01-28T15:31:54Z</time>
      </trkpt>
      <trkpt lat="44.44506" lon="4.08405">
        <ele>429.4</ele>
        <time>2018-01-28T15:32:12Z</time>
      </trkpt>
      <trkpt lat="44.44487" lon="4.08397">
        <ele>432.81</ele>
        <time>2018-01-28T15:32:30Z</time>
      </trkpt>
      <trkpt lat="44.4447" lon="4.08414">
        <ele>434.03</ele>
        <time>2018-01-28T15:32:50Z</time>
      </trkpt>
      <trkpt lat="44.44455" lon="4.0843">
        <ele>435.44</ele>
        <time>2018-01-28T15:33:16Z</time>
      </trkpt>
      <trkpt lat="44.44443" lon="4.08454">
        <ele>437.2</ele>
        <time>2018-01-28T15:33:38Z</time>
      </trkpt>
      <trkpt lat="44.44444" lon="4.0848">
        <ele>440.76</ele>
        <time>2018-01-28T15:33:56Z</time>
      </trkpt>
      <trkpt lat="44.44437" lon="4.08504">
        <ele>440.35</ele>
        <time>2018-01-28T15:34:20Z</time>
      </trkpt>
      <trkpt lat="44.44435" lon="4.0853">
        <ele>437.92</ele>
        <time>2018-01-28T15:34:40Z</time>
      </trkpt>
      <trkpt lat="44.44432" lon="4.08556">
        <ele>434.54</ele>
        <time>2018-01-28T15:35:02Z</time>
      </trkpt>
      <trkpt lat="44.44431" lon="4.08582">
        <ele>446.78</ele>
        <time>2018-01-28T15:35:30Z</time>
      </trkpt>
      <trkpt lat="44.44432" lon="4.08609">
        <ele>448.51</ele>
        <time>2018-01-28T15:35:52Z</time>
      </trkpt>
      <trkpt lat="44.44418" lon="4.08626">
        <ele>450.56</ele>
        <time>2018-01-28T15:36:06Z</time>
      </trkpt>
      <trkpt lat="44.44404" lon="4.08645">
        <ele>448.73</ele>
        <time>2018-01-28T15:36:36Z</time>
      </trkpt>
      <trkpt lat="44.44394" lon="4.08667">
        <ele>445.43</ele>
        <time>2018-01-28T15:36:56Z</time>
      </trkpt>
      <trkpt lat="44.44377" lon="4.08681">
        <ele>450.61</ele>
        <time>2018-01-28T15:37:14Z</time>
      </trkpt>
      <trkpt lat="44.44361" lon="4.08693">
        <ele>453.38</ele>
        <time>2018-01-28T15:37:30Z</time>
      </trkpt>
      <trkpt lat="44.44346" lon="4.08709">
        <ele>452.28</ele>
        <time>2018-01-28T15:38:14Z</time>
      </trkpt>
      <trkpt lat="44.44335" lon="4.08731">
        <ele>451.05</ele>
        <time>2018-01-28T15:38:34Z</time>
      </trkpt>
      <trkpt lat="44.44327" lon="4.08755">
        <ele>443.75</ele>
        <time>2018-01-28T15:39:00Z</time>
      </trkpt>
      <trkpt lat="44.44327" lon="4.08783">
        <ele>446.52</ele>
        <time>2018-01-28T15:39:34Z</time>
      </trkpt>
      <trkpt lat="44.44326" lon="4.08809">
        <ele>441.87</ele>
        <time>2018-01-28T15:39:50Z</time>
      </trkpt>
      <trkpt lat="44.4433" lon="4.08839">
        <ele>437.12</ele>
        <time>2018-01-28T15:40:34Z</time>
      </trkpt>
      <trkpt lat="44.44335" lon="4.08864">
        <ele>439.82</ele>
        <time>2018-01-28T15:40:48Z</time>
      </trkpt>
      <trkpt lat="44.4434" lon="4.08891">
        <ele>439.18</ele>
        <time>2018-01-28T15:41:04Z</time>
      </trkpt>
      <trkpt lat="44.44342" lon="4.08921">
        <ele>439.35</ele>
        <time>2018-01-28T15:41:52Z</time>
      </trkpt>
      <trkpt lat="44.44342" lon="4.0895">
        <ele>434.55</ele>
        <time>2018-01-28T15:42:04Z</time>
      </trkpt>
      <trkpt lat="44.44355" lon="4.08971">
        <ele>439.1</ele>
        <time>2018-01-28T15:42:24Z</time>
      </trkpt>
      <trkpt lat="44.44347" lon="4.08996">
        <ele>441.81</ele>
        <time>2018-01-28T15:43:08Z</time>
      </trkpt>
      <trkpt lat="44.44339" lon="4.09021">
        <ele>441.97</ele>
        <time>2018-01-28T15:43:22Z</time>
      </trkpt>
      <trkpt lat="44.44333" lon="4.09047">
        <ele>432.68</ele>
        <time>2018-01-28T15:43:40Z</time>
      </trkpt>
      <trkpt lat="44.44324" lon="4.0907">
        <ele>438.96</ele>
        <time>2018-01-28T15:43:58Z</time>
      </trkpt>
      <trkpt lat="44.44315" lon="4.09092">
        <ele>433.66</ele>
        <time>2018-01-28T15:44:16Z</time>
      </trkpt>
      <trkpt lat="44.443" lon="4.09111">
        <ele>434.74</ele>
        <time>2018-01-28T15:44:30Z</time>
      </trkpt>
      <trkpt lat="44.44293" lon="4.09139">
        <ele>428.84</ele>
        <time>2018-01-28T15:45:16Z</time>
      </trkpt>
      <trkpt lat="44.44289" lon="4.09166">
        <ele>428.06</ele>
        <time>2018-01-28T15:45:28Z</time>
      </trkpt>
      <trkpt lat="44.44285" lon="4.09191">
        <ele>427.24</ele>
        <time>2018-01-28T15:45:40Z</time>
      </trkpt>
      <trkpt lat="44.44285" lon="4.09219">
        <ele>424.87</ele>
        <time>2018-01-28T15:45:54Z</time>
      </trkpt>
      <trkpt lat="44.44268" lon="4.09225">
        <ele>418.52</ele>
        <time>2018-01-28T15:46:16Z</time>
      </trkpt>
      <trkpt lat="44.44249" lon="4.09215">
        <ele>422.72</ele>
        <time>2018-01-28T15:47:26Z</time>
      </trkpt>
      <trkpt lat="44.44265" lon="4.09197">
        <ele>429.5</ele>
        <time>2018-01-28T15:49:26Z</time>
      </trkpt>
      <trkpt lat="44.44246" lon="4.09215">
        <ele>427.75</ele>
        <time>2018-01-28T15:49:29Z</time>
      </trkpt>
      <trkpt lat="44.44264" lon="4.09164">
        <ele>428.5</ele>
        <time>2018-01-28T15:52:59Z</time>
      </trkpt>
      <trkpt lat="44.44246" lon="4.09215">
        <ele>426.05</ele>
        <time>2018-01-28T15:53:30Z</time>
      </trkpt>
      <trkpt lat="44.44266" lon="4.09217">
        <ele>422.34</ele>
        <time>2018-01-28T16:07:27Z</time>
      </trkpt>
      <trkpt lat="44.44282" lon="4.09228">
        <ele>414.4</ele>
        <time>2018-01-28T16:07:37Z</time>
      </trkpt>
      <trkpt lat="44.44283" lon="4.09256">
        <ele>423.66</ele>
        <time>2018-01-28T16:07:53Z</time>
      </trkpt>
      <trkpt lat="44.44285" lon="4.09281">
        <ele>418.82</ele>
        <time>2018-01-28T16:08:11Z</time>
      </trkpt>
      <trkpt lat="44.44283" lon="4.09308">
        <ele>418.3</ele>
        <time>2018-01-28T16:08:31Z</time>
      </trkpt>
      <trkpt lat="44.44279" lon="4.09334">
        <ele>423.14</ele>
        <time>2018-01-28T16:08:49Z</time>
      </trkpt>
    </trkseg>
  </trk>
</gpx>